createdAt,value
2022-07-26T00:00:38.627Z,27.30
2022-07-26T00:03:07.355Z,27.30
2022-07-26T00:05:37.423Z,27.30
2022-07-26T00:08:13.712Z,27.20
2022-07-26T00:10:46.062Z,27.20
2022-07-26T00:13:17.738Z,27.20
2022-07-26T00:15:47.253Z,27.20
2022-07-26T00:18:17.143Z,27.20
2022-07-26T00:20:46.120Z,27.20
2022-07-26T00:23:15.381Z,27.10
2022-07-26T00:25:44.181Z,27.10
2022-07-26T00:28:12.930Z,27.10
2022-07-26T00:30:43.271Z,27.00
2022-07-26T00:33:12.000Z,27.00
2022-07-26T00:35:40.748Z,26.90
2022-07-26T00:38:09.458Z,26.90
2022-07-26T00:40:38.210Z,26.90
2022-07-26T00:43:06.869Z,26.90
2022-07-26T00:45:35.559Z,26.90
2022-07-26T00:48:06.953Z,26.90
2022-07-26T00:50:36.193Z,26.90
2022-07-26T00:53:05.395Z,26.80
2022-07-26T00:55:34.464Z,26.80
2022-07-26T00:58:03.250Z,26.80
2022-07-26T01:00:31.910Z,26.70
2022-07-26T01:03:01.705Z,26.70
2022-07-26T01:05:32.839Z,26.70
2022-07-26T01:08:01.670Z,26.70
2022-07-26T01:10:30.730Z,26.70
2022-07-26T01:12:59.497Z,26.70
2022-07-26T01:15:28.279Z,26.70
2022-07-26T01:17:56.964Z,26.70
2022-07-26T01:20:25.723Z,26.70
2022-07-26T01:22:55.870Z,26.60
2022-07-26T01:25:32.609Z,26.60
2022-07-26T01:28:19.668Z,26.60
2022-07-26T01:30:50.081Z,26.60
2022-07-26T01:33:18.937Z,26.60
2022-07-26T01:35:47.728Z,26.60
2022-07-26T01:38:17.739Z,26.60
2022-07-26T01:40:46.467Z,26.60
2022-07-26T01:43:15.157Z,26.60
2022-07-26T01:45:43.897Z,26.60
2022-07-26T01:48:12.744Z,26.50
2022-07-26T01:50:41.357Z,26.60
2022-07-26T01:53:10.105Z,26.60
2022-07-26T01:55:40.153Z,26.60
2022-07-26T01:58:08.968Z,26.60
2022-07-26T02:00:37.899Z,26.50
2022-07-26T02:03:06.702Z,26.50
2022-07-26T02:05:35.489Z,26.40
2022-07-26T02:08:04.471Z,26.30
2022-07-26T02:10:47.567Z,26.20
2022-07-26T02:13:18.039Z,26.20
2022-07-26T02:15:46.812Z,26.20
2022-07-26T02:18:15.576Z,26.30
2022-07-26T02:20:44.287Z,26.30
2022-07-26T02:23:14.083Z,26.40
2022-07-26T02:25:42.864Z,26.40
2022-07-26T02:28:11.763Z,26.40
2022-07-26T02:30:41.852Z,26.40
2022-07-26T02:33:10.762Z,26.40
2022-07-26T02:35:39.940Z,26.40
2022-07-26T02:38:13.173Z,26.30
2022-07-26T02:40:43.087Z,26.30
2022-07-26T02:43:12.827Z,26.30
2022-07-26T02:45:42.888Z,26.30
2022-07-26T02:48:11.603Z,26.30
2022-07-26T02:50:41.810Z,26.20
2022-07-26T02:53:10.473Z,26.10
2022-07-26T02:55:39.643Z,26.10
2022-07-26T02:58:08.287Z,26.10
2022-07-26T03:00:36.967Z,26.00
2022-07-26T03:03:07.107Z,26.00
2022-07-26T03:05:35.881Z,25.90
2022-07-26T03:08:04.879Z,25.90
2022-07-26T03:10:33.613Z,25.90
2022-07-26T03:13:02.252Z,25.80
2022-07-26T03:15:31.532Z,25.80
2022-07-26T03:18:00.320Z,25.80
2022-07-26T03:20:30.722Z,25.70
2022-07-26T03:22:59.352Z,25.60
2022-07-26T03:25:28.131Z,25.60
2022-07-26T03:27:58.223Z,25.60
2022-07-26T03:30:27.611Z,25.50
2022-07-26T03:32:56.425Z,25.40
2022-07-26T03:35:25.609Z,25.30
2022-07-26T03:37:55.825Z,25.30
2022-07-26T03:40:24.600Z,25.30
2022-07-26T03:42:53.249Z,25.20
2022-07-26T03:45:22.026Z,25.10
2022-07-26T03:47:50.738Z,25.10
2022-07-26T03:50:19.662Z,25.10
2022-07-26T03:52:48.435Z,25.00
2022-07-26T03:55:35.963Z,25.00
2022-07-26T03:58:04.668Z,25.00
2022-07-26T04:00:33.337Z,25.00
2022-07-26T04:03:02.111Z,24.90
2022-07-26T04:05:31.142Z,24.80
2022-07-26T04:08:00.033Z,24.80
2022-07-26T04:10:30.431Z,24.80
2022-07-26T04:12:59.087Z,24.70
2022-07-26T04:15:27.852Z,24.70
2022-07-26T04:17:56.563Z,24.60
2022-07-26T04:20:25.271Z,24.60
2022-07-26T04:22:54.023Z,24.60
2022-07-26T04:25:23.292Z,24.60
2022-07-26T04:27:53.511Z,24.50
2022-07-26T04:30:22.248Z,24.40
2022-07-26T04:32:50.940Z,24.30
2022-07-26T04:35:19.966Z,24.30
2022-07-26T04:37:48.821Z,24.20
2022-07-26T04:40:21.668Z,24.10
2022-07-26T04:42:54.240Z,24.00
2022-07-26T04:45:23.290Z,24.00
2022-07-26T04:47:52.409Z,24.00
2022-07-26T04:50:23.542Z,24.00
2022-07-26T04:52:53.877Z,23.90
2022-07-26T04:55:23.617Z,23.90
2022-07-26T04:57:54.278Z,23.90
2022-07-26T05:00:25.246Z,23.90
2022-07-26T05:02:57.579Z,23.90
2022-07-26T05:05:29.320Z,23.90
2022-07-26T05:08:01.433Z,23.90
2022-07-26T05:10:32.927Z,23.90
2022-07-26T05:13:05.163Z,23.90
2022-07-26T05:15:36.064Z,23.90
2022-07-26T05:18:08.837Z,23.90
2022-07-26T05:20:40.431Z,23.90
2022-07-26T05:23:24.488Z,24.00
2022-07-26T05:25:53.274Z,24.00
2022-07-26T05:28:23.391Z,24.00
2022-07-26T05:30:52.585Z,24.00
2022-07-26T05:33:21.743Z,24.10
2022-07-26T05:35:50.462Z,24.00
2022-07-26T05:38:19.747Z,24.00
2022-07-26T05:40:50.865Z,24.00
2022-07-26T05:43:19.974Z,23.80
2022-07-26T05:45:50.361Z,23.80
2022-07-26T05:48:19.125Z,23.80
2022-07-26T05:50:48.502Z,23.70
2022-07-26T05:53:18.870Z,23.70
2022-07-26T05:55:47.569Z,23.70
2022-07-26T05:58:16.378Z,23.60
2022-07-26T06:00:48.510Z,23.50
2022-07-26T06:03:24.637Z,23.40
2022-07-26T06:05:56.841Z,23.30
2022-07-26T06:08:27.685Z,23.20
2022-07-26T06:10:56.824Z,23.00
2022-07-26T06:13:25.530Z,22.90
2022-07-26T06:15:54.571Z,22.80
2022-07-26T06:18:24.787Z,22.80
2022-07-26T06:20:53.711Z,22.80
2022-07-26T06:23:33.982Z,22.90
2022-07-26T06:26:05.260Z,22.90
2022-07-26T06:28:34.885Z,22.90
2022-07-26T06:31:03.823Z,22.90
2022-07-26T06:33:34.060Z,22.90
2022-07-26T06:36:02.803Z,22.90
2022-07-26T06:38:31.582Z,22.80
2022-07-26T06:41:00.618Z,22.80
2022-07-26T06:43:29.267Z,22.80
2022-07-26T06:45:58.067Z,22.90
2022-07-26T06:48:26.983Z,23.00
2022-07-26T06:50:57.160Z,23.10
2022-07-26T06:53:25.843Z,23.10
2022-07-26T06:55:54.542Z,23.10
2022-07-26T06:58:23.281Z,23.10
2022-07-26T07:00:52.083Z,23.00
2022-07-26T07:03:20.850Z,23.00
2022-07-26T07:05:50.390Z,22.90
2022-07-26T07:08:23.255Z,22.90
2022-07-26T07:10:53.004Z,22.90
2022-07-26T07:13:23.140Z,22.90
2022-07-26T07:15:51.880Z,22.90
2022-07-26T07:18:22.345Z,22.90
2022-07-26T07:20:51.076Z,22.90
2022-07-26T07:23:23.377Z,22.90
2022-07-26T07:25:52.379Z,23.00
2022-07-26T07:28:22.427Z,23.00
2022-07-26T07:30:52.715Z,23.10
2022-07-26T07:33:22.636Z,23.20
2022-07-26T07:35:53.920Z,23.20
2022-07-26T07:38:23.931Z,23.30
2022-07-26T07:40:53.435Z,23.30
2022-07-26T07:43:22.313Z,23.30
2022-07-26T07:45:51.092Z,23.20
2022-07-26T07:48:19.934Z,23.30
2022-07-26T07:50:48.703Z,23.30
2022-07-26T07:53:17.524Z,23.30
2022-07-26T07:55:50.272Z,23.20
2022-07-26T07:58:24.316Z,23.30
2022-07-26T08:00:56.923Z,23.40
2022-07-26T08:03:25.716Z,23.50
2022-07-26T08:06:10.879Z,23.50
2022-07-26T08:08:40.278Z,23.50
2022-07-26T08:11:10.635Z,23.50
2022-07-26T08:13:45.817Z,23.60
2022-07-26T08:16:16.849Z,23.50
2022-07-26T08:18:56.873Z,23.50
2022-07-26T08:21:28.111Z,23.30
2022-07-26T08:23:58.565Z,23.20
2022-07-26T08:26:28.637Z,23.20
2022-07-26T08:28:59.983Z,23.30
2022-07-26T08:31:29.438Z,23.30
2022-07-26T08:33:58.492Z,23.30
2022-07-26T08:36:32.284Z,23.30
2022-07-26T08:39:01.978Z,23.30
2022-07-26T08:41:32.944Z,23.20
2022-07-26T08:44:09.459Z,23.20
2022-07-26T08:46:41.292Z,23.30
2022-07-26T08:49:13.425Z,23.30
2022-07-26T08:51:45.542Z,23.40
2022-07-26T08:54:16.831Z,23.50
2022-07-26T08:56:54.149Z,23.60
2022-07-26T08:59:24.367Z,23.70
2022-07-26T09:01:56.366Z,23.80
2022-07-26T09:04:32.093Z,23.80
2022-07-26T09:07:08.794Z,23.90
2022-07-26T09:09:40.549Z,24.00
2022-07-26T09:12:20.258Z,24.00
2022-07-26T09:14:49.841Z,24.10
2022-07-26T09:17:20.539Z,24.10
2022-07-26T09:20:08.126Z,24.20
2022-07-26T09:22:37.780Z,24.40
2022-07-26T09:25:23.094Z,24.70
2022-07-26T09:27:54.411Z,25.00
2022-07-26T09:30:23.449Z,25.00
2022-07-26T09:33:06.055Z,24.90
2022-07-26T09:35:49.850Z,24.70
2022-07-26T09:38:19.047Z,24.50
2022-07-26T09:40:50.883Z,24.50
2022-07-26T09:43:24.648Z,24.50
2022-07-26T09:46:11.104Z,24.50
2022-07-26T09:51:42.216Z,24.40
2022-07-26T09:54:13.159Z,24.40
2022-07-26T09:56:46.409Z,24.50
2022-07-26T09:59:18.522Z,24.40
2022-07-26T10:01:48.250Z,24.20
2022-07-26T10:04:18.007Z,24.20
2022-07-26T10:06:47.960Z,24.00
2022-07-26T10:09:18.887Z,24.00
2022-07-26T10:11:55.417Z,24.00
2022-07-26T10:14:45.882Z,24.10
2022-07-26T10:17:49.521Z,24.10
2022-07-26T10:20:44.646Z,24.20
2022-07-26T10:23:40.182Z,24.20
2022-07-26T10:26:12.610Z,24.30
2022-07-26T10:28:43.093Z,24.30
2022-07-26T10:31:43.687Z,24.40
2022-07-26T10:34:30.386Z,24.60
2022-07-26T10:37:01.045Z,24.70
2022-07-26T10:39:30.188Z,24.90
2022-07-26T10:42:05.849Z,25.00
2022-07-26T10:44:39.239Z,25.20
2022-07-26T10:47:19.749Z,25.20
2022-07-26T10:49:58.794Z,25.30
2022-07-26T10:52:29.665Z,25.40
2022-07-26T10:55:18.205Z,25.50
2022-07-26T10:57:49.769Z,25.60
2022-07-26T11:00:23.528Z,25.70
2022-07-26T11:02:59.942Z,25.80
2022-07-26T11:05:34.925Z,25.70
2022-07-26T11:08:10.398Z,25.80
2022-07-26T11:10:42.734Z,26.00
2022-07-26T11:13:18.545Z,26.10
2022-07-26T11:15:51.933Z,26.20
2022-07-26T11:18:27.974Z,26.10
2022-07-26T11:20:59.402Z,26.10
2022-07-26T11:23:32.766Z,26.20
2022-07-26T11:26:18.292Z,26.30
2022-07-26T11:28:57.402Z,26.80
2022-07-26T11:31:55.600Z,27.20
2022-07-26T11:34:30.811Z,27.70
2022-07-26T11:37:03.019Z,28.20
2022-07-26T11:39:34.662Z,28.50
2022-07-26T11:42:06.751Z,28.90
2022-07-26T11:44:36.225Z,29.10
2022-07-26T11:47:14.553Z,29.10
2022-07-26T11:49:52.801Z,29.20
2022-07-26T11:52:32.641Z,29.30
2022-07-26T11:55:01.989Z,29.40
2022-07-26T11:57:32.845Z,29.50
2022-07-26T12:00:02.984Z,29.50
2022-07-26T12:02:31.980Z,29.50
2022-07-26T12:05:21.475Z,29.50
2022-07-26T12:08:00.401Z,29.60
2022-07-26T12:10:30.060Z,29.70
2022-07-26T12:13:11.875Z,29.70
2022-07-26T12:15:49.704Z,29.70
2022-07-26T12:18:27.338Z,29.40
2022-07-26T12:21:07.880Z,29.10
2022-07-26T12:23:45.981Z,28.80
2022-07-26T12:26:26.010Z,28.70
2022-07-26T12:28:55.715Z,28.50
2022-07-26T12:31:30.699Z,28.40
2022-07-26T12:34:00.907Z,28.30
2022-07-26T12:36:35.497Z,28.20
2022-07-26T12:39:04.922Z,28.10
2022-07-26T12:41:37.323Z,28.00
2022-07-26T12:44:07.178Z,28.10
2022-07-26T12:46:37.249Z,28.40
2022-07-26T12:49:06.908Z,28.70
2022-07-26T12:51:37.233Z,28.90
2022-07-26T12:54:06.827Z,29.10
2022-07-26T12:56:35.931Z,29.20
2022-07-26T12:59:04.620Z,29.20
2022-07-26T13:01:34.051Z,29.30
2022-07-26T13:04:02.996Z,29.20
2022-07-26T13:06:33.035Z,28.70
2022-07-26T13:09:03.235Z,28.00
2022-07-26T13:11:32.614Z,27.50
2022-07-26T13:14:02.040Z,27.00
2022-07-26T13:16:30.820Z,26.70
2022-07-26T13:18:59.584Z,26.50
2022-07-26T13:21:33.193Z,26.40
2022-07-26T13:24:03.901Z,26.30
2022-07-26T13:26:37.307Z,26.20
2022-07-26T13:29:06.536Z,26.10
2022-07-26T13:31:35.403Z,26.00
2022-07-26T13:34:05.257Z,26.00
2022-07-26T13:36:34.175Z,25.90
2022-07-26T13:39:05.703Z,25.90
2022-07-26T13:41:35.796Z,25.70
2022-07-26T13:44:06.976Z,25.60
2022-07-26T13:46:36.088Z,25.50
2022-07-26T13:49:07.760Z,25.30
2022-07-26T13:51:56.352Z,25.30
2022-07-26T13:54:29.868Z,25.30
2022-07-26T13:56:59.801Z,25.30
2022-07-26T13:59:29.289Z,25.30
2022-07-26T14:01:58.633Z,25.30
2022-07-26T14:04:29.049Z,25.20
2022-07-26T14:06:57.965Z,25.30
2022-07-26T14:09:27.964Z,25.30
2022-07-26T14:11:56.673Z,25.30
2022-07-26T14:14:25.342Z,25.30
2022-07-26T14:16:54.297Z,25.30
2022-07-26T14:19:23.000Z,25.30
2022-07-26T14:21:59.485Z,25.30
2022-07-26T14:24:31.389Z,25.20
2022-07-26T14:27:01.863Z,25.10
2022-07-26T14:29:31.625Z,25.10
2022-07-26T14:32:00.352Z,25.10
2022-07-26T14:34:29.141Z,25.10
2022-07-26T14:36:57.860Z,25.10
2022-07-26T14:39:26.649Z,25.10
2022-07-26T14:41:56.815Z,25.20
2022-07-26T14:44:26.624Z,25.20
2022-07-26T14:46:56.134Z,25.30
2022-07-26T14:49:27.753Z,25.20
2022-07-26T14:51:56.944Z,25.20
2022-07-26T14:54:25.633Z,25.30
2022-07-26T14:56:55.758Z,25.30
2022-07-26T14:59:24.487Z,25.40
2022-07-26T15:01:53.567Z,25.60
2022-07-26T15:04:22.326Z,25.60
2022-07-26T15:06:51.002Z,25.70
2022-07-26T15:09:19.714Z,25.80
2022-07-26T15:11:49.515Z,25.90
2022-07-26T15:14:19.690Z,25.90
2022-07-26T15:16:48.492Z,25.90
2022-07-26T15:19:19.844Z,25.90
2022-07-26T15:21:51.910Z,25.90
2022-07-26T15:24:20.727Z,25.90
2022-07-26T15:26:52.238Z,25.90
2022-07-26T15:29:22.499Z,26.00
2022-07-26T15:31:51.526Z,25.90
2022-07-26T15:34:20.347Z,25.90
2022-07-26T15:36:49.706Z,25.90
2022-07-26T15:39:18.648Z,25.90
2022-07-26T15:41:49.821Z,25.80
2022-07-26T15:44:25.823Z,25.80
2022-07-26T15:46:57.093Z,25.70
2022-07-26T15:49:26.782Z,25.70
2022-07-26T15:51:55.594Z,25.70
2022-07-26T15:54:24.422Z,25.70
2022-07-26T15:56:53.453Z,25.60
2022-07-26T15:59:23.644Z,25.60
2022-07-26T16:01:52.485Z,25.70
2022-07-26T16:04:21.324Z,25.90
2022-07-26T16:06:50.006Z,26.10
2022-07-26T16:09:19.711Z,26.30
2022-07-26T16:11:50.072Z,26.60
2022-07-26T16:14:19.366Z,26.80
2022-07-26T16:16:49.574Z,27.00
2022-07-26T16:19:19.072Z,27.10
2022-07-26T16:21:48.047Z,27.20
2022-07-26T16:24:35.594Z,27.30
2022-07-26T16:27:04.745Z,27.10
2022-07-26T16:29:33.529Z,26.70
2022-07-26T16:32:03.808Z,26.50
2022-07-26T16:34:34.898Z,26.30
2022-07-26T16:37:04.298Z,26.20
2022-07-26T16:39:33.242Z,26.10
2022-07-26T16:42:06.839Z,26.00
2022-07-26T16:44:36.970Z,26.00
2022-07-26T16:47:07.376Z,25.80
2022-07-26T16:49:36.237Z,25.70
2022-07-26T16:52:05.613Z,25.60
2022-07-26T16:54:34.617Z,25.60
2022-07-26T16:57:03.423Z,25.60
2022-07-26T16:59:32.103Z,25.60
2022-07-26T17:02:02.147Z,25.60
2022-07-26T17:04:33.179Z,25.60
2022-07-26T17:07:23.993Z,25.50
2022-07-26T17:09:50.840Z,25.50
2022-07-26T17:12:19.764Z,25.60
2022-07-26T17:14:48.431Z,25.80
2022-07-26T17:17:17.155Z,25.90
2022-07-26T17:19:47.356Z,26.10
2022-07-26T17:22:16.172Z,26.30
2022-07-26T17:24:45.632Z,26.40
2022-07-26T17:27:14.756Z,26.60
2022-07-26T17:29:44.063Z,26.60
2022-07-26T17:32:13.014Z,26.60
2022-07-26T17:34:42.550Z,26.70
2022-07-26T17:37:12.982Z,26.70
2022-07-26T17:39:52.232Z,26.60
2022-07-26T17:42:22.946Z,26.60
2022-07-26T17:44:52.527Z,26.70
2022-07-26T17:47:29.310Z,26.70
2022-07-26T17:52:54.394Z,26.80
2022-07-26T17:55:24.066Z,26.80
2022-07-26T17:57:53.224Z,26.70
2022-07-26T18:00:28.562Z,26.70
2022-07-26T18:02:58.375Z,26.60
2022-07-26T18:05:33.927Z,26.60
2022-07-26T18:08:05.525Z,26.50
2022-07-26T18:10:34.331Z,26.40
2022-07-26T18:13:03.194Z,26.30
2022-07-26T18:15:32.141Z,26.10
2022-07-26T18:18:00.887Z,25.90
2022-07-26T18:20:29.834Z,25.70
2022-07-26T18:22:59.625Z,25.50
2022-07-26T18:25:29.646Z,25.10
2022-07-26T18:28:01.994Z,24.80
2022-07-26T18:30:33.938Z,24.50
2022-07-26T18:33:02.874Z,24.20
2022-07-26T18:35:32.651Z,23.90
2022-07-26T18:38:01.396Z,23.70
2022-07-26T18:40:32.617Z,23.50
2022-07-26T18:43:01.886Z,23.30
2022-07-26T18:45:30.788Z,23.20
2022-07-26T18:47:59.937Z,23.20
2022-07-26T18:50:31.058Z,23.20
2022-07-26T18:53:01.512Z,23.20
2022-07-26T18:55:32.549Z,23.20
2022-07-26T18:58:06.590Z,23.10
2022-07-26T19:00:35.918Z,23.00
2022-07-26T19:03:04.959Z,23.10
2022-07-26T19:05:35.429Z,23.00
2022-07-26T19:08:05.707Z,23.00
2022-07-26T19:10:36.412Z,22.90
2022-07-26T19:13:05.212Z,22.80
2022-07-26T19:15:33.940Z,22.80
2022-07-26T19:18:12.340Z,22.70
2022-07-26T19:20:41.634Z,22.60
2022-07-26T19:23:11.450Z,22.60
2022-07-26T19:25:42.858Z,22.60
2022-07-26T19:28:11.614Z,22.70
2022-07-26T19:30:40.524Z,22.60
2022-07-26T19:33:09.218Z,22.70
2022-07-26T19:35:38.000Z,22.70
2022-07-26T19:38:06.870Z,22.70
2022-07-26T19:40:35.685Z,22.70
2022-07-26T19:43:05.880Z,22.80
2022-07-26T19:45:34.617Z,22.80
2022-07-26T19:48:03.713Z,22.80
2022-07-26T19:50:32.572Z,22.70
2022-07-26T19:53:01.414Z,22.70
2022-07-26T19:55:30.101Z,22.70
2022-07-26T19:57:59.004Z,22.60
2022-07-26T20:00:30.083Z,22.60
2022-07-26T20:03:01.059Z,22.60
2022-07-26T20:05:30.097Z,22.60
2022-07-26T20:07:58.920Z,22.60
2022-07-26T20:10:31.958Z,22.50
2022-07-26T20:13:01.216Z,22.50
2022-07-26T20:15:31.475Z,22.50
2022-07-26T20:18:00.214Z,22.50
2022-07-26T20:20:29.215Z,22.50
2022-07-26T20:22:57.915Z,22.50
2022-07-26T20:25:26.651Z,22.60
2022-07-26T20:27:55.550Z,22.60
2022-07-26T20:30:24.358Z,22.60
2022-07-26T20:32:54.748Z,22.50
2022-07-26T20:35:23.483Z,22.50
2022-07-26T20:37:52.119Z,22.50
2022-07-26T20:40:20.949Z,22.50
2022-07-26T20:42:50.305Z,22.60
2022-07-26T20:45:19.746Z,22.60
2022-07-26T20:47:48.436Z,22.60
2022-07-26T20:50:18.491Z,22.60
2022-07-26T20:52:47.503Z,22.70
2022-07-26T20:55:18.098Z,22.70
2022-07-26T20:57:46.873Z,22.70
2022-07-26T21:00:17.688Z,22.70
2022-07-26T21:02:46.561Z,22.70
2022-07-26T21:05:15.378Z,22.70
2022-07-26T21:07:55.648Z,22.70
2022-07-26T21:10:29.280Z,22.70
2022-07-26T21:13:00.514Z,22.70
2022-07-26T21:15:29.660Z,22.70
2022-07-26T21:17:58.377Z,22.70
2022-07-26T21:20:27.019Z,22.60
2022-07-26T21:23:08.124Z,22.60
2022-07-26T21:26:03.452Z,22.60
2022-07-26T21:28:32.241Z,22.60
2022-07-26T21:31:00.966Z,22.40
2022-07-26T21:33:29.629Z,22.30
2022-07-26T21:35:58.375Z,22.30
2022-07-26T21:38:32.026Z,22.20
2022-07-26T21:41:00.804Z,22.20
2022-07-26T21:43:29.514Z,22.00
2022-07-26T21:45:58.244Z,21.90
2022-07-26T21:48:27.033Z,22.00
2022-07-26T21:50:55.696Z,21.90
2022-07-26T21:53:24.402Z,21.90
2022-07-26T21:55:54.513Z,21.90
2022-07-26T21:58:27.510Z,21.90
2022-07-26T22:01:06.543Z,22.00
2022-07-26T22:03:38.238Z,22.00
2022-07-26T22:06:08.370Z,21.90
2022-07-26T22:08:38.784Z,21.90
2022-07-26T22:11:08.927Z,21.90
2022-07-26T22:13:38.625Z,21.90
2022-07-26T22:16:08.387Z,21.90
2022-07-26T22:18:37.252Z,21.90
2022-07-26T22:21:06.527Z,21.80
2022-07-26T22:23:35.253Z,21.70
2022-07-26T22:26:06.634Z,21.60
2022-07-26T22:28:38.432Z,21.50
2022-07-26T22:31:07.304Z,21.50
2022-07-26T22:33:35.942Z,21.40
2022-07-26T22:36:05.318Z,21.30
2022-07-26T22:38:33.972Z,21.30
2022-07-26T22:41:02.689Z,21.30
2022-07-26T22:43:31.513Z,21.30
2022-07-26T22:46:01.715Z,21.30
2022-07-26T22:48:30.605Z,21.30
2022-07-26T22:50:59.303Z,21.30
2022-07-26T22:53:27.952Z,21.30
2022-07-26T22:55:56.706Z,21.30
2022-07-26T22:58:25.341Z,21.40
2022-07-26T23:00:55.005Z,21.40
2022-07-26T23:03:25.120Z,21.50
2022-07-26T23:05:57.134Z,21.50
2022-07-26T23:11:15.029Z,21.50
2022-07-26T23:13:43.715Z,21.50
2022-07-26T23:16:12.480Z,21.50
2022-07-26T23:18:42.712Z,21.50
2022-07-26T23:21:11.392Z,21.50
2022-07-26T23:23:40.029Z,21.50
2022-07-26T23:26:08.672Z,21.50
2022-07-26T23:28:38.525Z,21.50
2022-07-26T23:31:12.754Z,21.50
2022-07-26T23:33:52.441Z,21.40
2022-07-26T23:36:27.726Z,21.40
2022-07-26T23:38:58.538Z,21.50
2022-07-26T23:41:28.314Z,21.50
2022-07-26T23:43:58.427Z,21.60
2022-07-26T23:46:27.549Z,21.60
2022-07-26T23:48:59.057Z,21.60
2022-07-26T23:51:28.440Z,21.60
2022-07-26T23:53:57.192Z,21.60
2022-07-26T23:56:25.953Z,21.60
2022-07-26T23:58:55.254Z,21.60
